| time (UTC) | temp F | wind direction | speed MPH | gust MPH | rain 1hr in | rain 24hr in | rain mn in | humidity % | barometer mb |
| 20260903223145 | 62 | 95 | 1.0 | 2.0 | 0.00 | 0.01 | 0.01 | 73 | 1009.7 |
| 20260903222640 | 62 | 169 | 3.0 | 4.0 | 0.00 | 0.01 | 0.01 | 73 | 1010.0 |
| 20260903222139 | 61 | 121 | 1.0 | 5.0 | 0.00 | 0.01 | 0.01 | 73 | 1009.8 |
| 20260903221634 | 61 | 142 | 1.0 | 6.0 | 0.00 | 0.01 | 0.01 | 73 | 1009.7 |
| 20260903221132 | 60 | 127 | 3.0 | 5.0 | 0.00 | 0.01 | 0.01 | 76 | 1009.8 |
| 20260903220627 | 60 | 121 | 3.0 | 4.0 | 0.00 | 0.01 | 0.01 | 78 | 1009.9 |
| 20260903220127 | 60 | 155 | 4.0 | 4.0 | 0.00 | 0.01 | 0.01 | 77 | 1009.8 |
| 20260903215625 | 61 | 161 | 2.0 | 2.0 | 0.00 | 0.01 | 0.01 | 77 | 1009.9 |
| 20260903215120 | 61 | 138 | 2.0 | 2.0 | 0.00 | 0.01 | 0.01 | 76 | 1009.8 |
| 20260903214614 | 61 | 136 | 2.0 | 2.0 | 0.00 | 0.01 | 0.01 | 77 | 1009.8 |
| 20260903214109 | 61 | 110 | 1.0 | 3.0 | 0.00 | 0.01 | 0.01 | 78 | 1009.8 |
| 20260903213604 | 60 | 105 | 3.0 | 4.0 | 0.00 | 0.01 | 0.01 | 78 | 1009.7 |
| 20260903213100 | 60 | 224 | 2.0 | 5.0 | 0.00 | 0.01 | 0.01 | 79 | 1009.8 |
| 20260903212555 | 59 | 126 | 3.0 | 5.0 | 0.00 | 0.01 | 0.01 | 81 | 1009.7 |
| 20260903212050 | 60 | 126 | 2.0 | 5.0 | 0.00 | 0.01 | 0.01 | 79 | 1009.5 |
| 20260903211545 | 60 | 154 | 4.0 | 7.0 | 0.00 | 0.01 | 0.01 | 79 | 1009.5 |
| 20260903211042 | 59 | 348 | 0.0 | 4.0 | 0.00 | 0.01 | 0.01 | 80 | 1009.5 |
| 20260903210536 | 60 | 269 | 0.0 | 4.0 | 0.00 | 0.01 | 0.01 | 79 | 1009.4 |
| 20260903210033 | 60 | 179 | 2.0 | 4.0 | 0.00 | 0.01 | 0.01 | 78 | 1009.2 |
| 20260903205531 | 61 | 161 | 2.0 | 5.0 | 0.00 | 0.01 | 0.01 | 76 | 1009.2 |
| 20260903205026 | 61 | 114 | 2.0 | 4.0 | 0.00 | 0.01 | 0.01 | 73 | 1009.2 |
| 20260903204522 | 61 | 318 | 2.0 | 3.0 | 0.00 | 0.01 | 0.01 | 71 | 1009.1 |
| 20260903204017 | 61 | 142 | 0.0 | 1.0 | 0.00 | 0.01 | 0.01 | 75 | 1009.0 |
| 20260903203513 | 60 | 161 | 3.0 | 4.0 | 0.00 | 0.01 | 0.01 | 74 | 1009.1 |
| 20260903203012 | 62 | 108 | 2.0 | 4.0 | 0.00 | 0.01 | 0.01 | 72 | 1009.0 |
| 20260903202508 | 63 | 282 | 2.0 | 4.0 | 0.00 | 0.01 | 0.01 | 69 | 1009.0 |
| 20260903202004 | 65 | 117 | 3.0 | 6.0 | 0.00 | 0.01 | 0.01 | 66 | 1008.9 |
| 20260903201458 | 67 | 95 | 2.0 | 8.0 | 0.00 | 0.01 | 0.01 | 63 | 1008.9 |
| 20260903200957 | 67 | 211 | 3.0 | 8.0 | 0.00 | 0.01 | 0.01 | 63 | 1008.8 |
| 20260903200452 | 67 | 153 | 6.0 | 9.0 | 0.00 | 0.01 | 0.01 | 61 | 1008.8 |
| 20260903195947 | 68 | 141 | 2.0 | 9.0 | 0.00 | 0.01 | 0.01 | 63 | 1008.6 |
| 20260903195443 | 65 | 205 | 2.0 | 3.0 | 0.00 | 0.01 | 0.01 | 66 | 1008.7 |
| 20260903194938 | 66 | 155 | 3.0 | 4.0 | 0.00 | 0.01 | 0.01 | 62 | 1008.7 |
| 20260903194433 | 66 | 131 | 2.0 | 4.0 | 0.00 | 0.01 | 0.01 | 66 | 1008.9 |
| 20260903193928 | 66 | 186 | 4.0 | 4.0 | 0.00 | 0.01 | 0.01 | 66 | 1008.9 |
| 20260903193425 | 65 | 167 | 2.0 | 6.0 | 0.00 | 0.01 | 0.01 | 68 | 1008.8 |
| 20260903192919 | 66 | 145 | 5.0 | 5.0 | 0.00 | 0.01 | 0.01 | 70 | 1008.7 |
| 20260903192416 | 65 | 121 | 4.0 | 8.0 | 0.00 | 0.01 | 0.01 | 72 | 1008.7 |
| 20260903191912 | 66 | 154 | 3.0 | 6.0 | 0.00 | 0.01 | 0.01 | 71 | 1008.5 |
| 20260903191408 | 64 | 181 | 4.0 | 5.0 | 0.00 | 0.01 | 0.01 | 75 | 1008.6 |
| 20260903190907 | 65 | 111 | 2.0 | 9.0 | 0.00 | 0.01 | 0.01 | 71 | 1008.7 |
| 20260903190401 | 64 | 140 | 3.0 | 7.0 | 0.00 | 0.01 | 0.01 | 74 | 1008.6 |
| 20260903185901 | 61 | 155 | 2.0 | 6.0 | 0.00 | 0.01 | 0.01 | 79 | 1008.6 |
| 20260903185356 | 61 | 191 | 5.0 | 6.0 | 0.00 | 0.01 | 0.01 | 78 | 1008.8 |
| 20260903184851 | 62 | 151 | 3.0 | 8.0 | 0.00 | 0.01 | 0.01 | 78 | 1008.6 |
| 20260903184349 | 63 | 168 | 5.0 | 6.0 | 0.00 | 0.01 | 0.01 | 75 | 1008.6 |
| 20260903183843 | 62 | 124 | 3.0 | 6.0 | 0.00 | 0.01 | 0.01 | 75 | 1008.5 |
| 20260903183338 | 63 | 170 | 5.0 | 8.0 | 0.00 | 0.01 | 0.01 | 75 | 1008.5 |
| 20260903182837 | 63 | 144 | 2.0 | 5.0 | 0.00 | 0.01 | 0.01 | 76 | 1008.5 |
| 20260903182336 | 63 | 166 | 3.0 | 6.0 | 0.00 | 0.01 | 0.01 | 74 | 1008.5 |
| 20260903181831 | 63 | 144 | 3.0 | 8.0 | 0.00 | 0.01 | 0.01 | 78 | 1008.4 |
| 20260903181326 | 62 | 152 | 0.0 | 6.0 | 0.00 | 0.01 | 0.01 | 81 | 1008.4 |
| 20260903180825 | 62 | 133 | 3.0 | 6.0 | 0.00 | 0.01 | 0.01 | 78 | 1008.4 |
| 20260903180320 | 62 | 137 | 5.0 | 6.0 | 0.00 | 0.01 | 0.01 | 78 | 1008.2 |
| 20260903175819 | 60 | 108 | 2.0 | 5.0 | 0.00 | 0.01 | 0.01 | 83 | 1008.3 |
| 20260903175319 | 61 | 131 | 4.0 | 5.0 | 0.00 | 0.01 | 0.01 | 80 | 1008.3 |
| 20260903174813 | 62 | 173 | 5.0 | 5.0 | 0.00 | 0.01 | 0.01 | 77 | 1008.1 |
| 20260903174309 | 60 | 132 | 4.0 | 7.0 | 0.00 | 0.01 | 0.01 | 81 | 1008.2 |
| 20260903173803 | 59 | 134 | 4.0 | 8.0 | 0.00 | 0.01 | 0.01 | 81 | 1008.2 |
| 20260903173258 | 60 | 131 | 4.0 | 9.0 | 0.00 | 0.01 | 0.01 | 81 | 1008.2 |
| 20260903172754 | 61 | 178 | 5.0 | 8.0 | 0.00 | 0.01 | 0.01 | 77 | 1008.2 |
| 20260903172249 | 61 | 111 | 5.0 | 5.0 | 0.00 | 0.01 | 0.01 | 82 | 1008.1 |
| 20260903171744 | 62 | 189 | 7.0 | 7.0 | 0.00 | 0.01 | 0.01 | 76 | 1008.0 |
| 20260903171239 | 62 | 170 | 3.0 | 3.0 | 0.00 | 0.01 | 0.01 | 79 | 1007.9 |
| 20260903170738 | 60 | 100 | 3.0 | 8.0 | 0.00 | 0.01 | 0.01 | 83 | 1007.7 |
| 20260903170234 | 61 | 119 | 4.0 | 6.0 | 0.00 | 0.01 | 0.01 | 84 | 1007.6 |
| 20260903165732 | 60 | 129 | 3.0 | 6.0 | 0.00 | 0.01 | 0.01 | 84 | 1007.5 |
| 20260903165227 | 59 | 163 | 2.0 | 7.0 | 0.00 | 0.01 | 0.01 | 86 | 1007.4 |
| 20260903164721 | 58 | 134 | 2.0 | 5.0 | 0.00 | 0.01 | 0.01 | 91 | 1007.6 |
| 20260903164218 | 57 | 155 | 3.0 | 8.0 | 0.00 | 0.01 | 0.01 | 91 | 1007.7 |
| 20260903163717 | 56 | 116 | 4.0 | 5.0 | 0.00 | 0.01 | 0.01 | 93 | 1007.6 |
| 20260903163213 | 56 | 116 | 3.0 | 8.0 | 0.00 | 0.01 | 0.01 | 93 | 1007.5 |
| 20260903162709 | 56 | 125 | 3.0 | 6.0 | 0.00 | 0.01 | 0.01 | 95 | 1007.5 |
| 20260903162205 | 55 | 167 | 2.0 | 6.0 | 0.00 | 0.01 | 0.01 | 96 | 1007.5 |
| 20260903161700 | 55 | 130 | 2.0 | 6.0 | 0.00 | 0.01 | 0.01 | 98 | 1007.7 |
| 20260903161156 | 54 | 49 | 3.0 | 6.0 | 0.00 | 0.01 | 0.01 | 99 | 1007.8 |
| 20260903160651 | 54 | 35 | 2.0 | 2.0 | 0.00 | 0.01 | 0.01 | 99 | 1007.4 |
| 20260903160145 | 53 | 169 | 6.0 | 6.0 | 0.00 | 0.01 | 0.01 | 99 | 1007.4 |
| 20260903155644 | 53 | 101 | 2.0 | 7.0 | 0.00 | 0.01 | 0.01 | 99 | 1007.6 |
| 20260903155139 | 53 | 74 | 2.0 | 4.0 | 0.00 | 0.01 | 0.01 | 99 | 1007.8 |
| 20260903154635 | 53 | 89 | 0.0 | 3.0 | 0.00 | 0.01 | 0.01 | 99 | 1007.6 |
| 20260903154131 | 52 | 177 | 2.0 | 4.0 | 0.00 | 0.01 | 0.01 | 99 | 1007.6 |
| 20260903153626 | 52 | 72 | 0.0 | 4.0 | 0.00 | 0.01 | 0.01 | 99 | 1007.7 |
| 20260903153122 | 52 | 212 | 0.0 | 4.0 | 0.00 | 0.01 | 0.01 | 99 | 1007.7 |
| 20260903152618 | 52 | 142 | 1.0 | 2.0 | 0.00 | 0.01 | 0.01 | 99 | 1007.7 |
| 20260903152114 | 52 | 122 | 1.0 | 2.0 | 0.00 | 0.01 | 0.01 | 99 | 1007.7 |
| 20260903151613 | 52 | 125 | 1.0 | 2.0 | 0.00 | 0.01 | 0.01 | 99 | 1007.5 |
| 20260903151109 | 52 | 84 | 0.0 | 3.0 | 0.00 | 0.01 | 0.01 | 99 | 1007.7 |
| 20260903150608 | 52 | 17 | 4.0 | 4.0 | 0.00 | 0.01 | 0.01 | 99 | 1007.7 |
| 20260903150104 | 52 | 91 | 3.0 | 4.0 | 0.00 | 0.01 | 0.01 | 99 | 1007.7 |
| 20260903145603 | 52 | 35 | 2.0 | 4.0 | 0.00 | 0.01 | 0.01 | 99 | 1007.6 |
| 20260903145058 | 52 | 110 | 2.0 | 2.0 | 0.00 | 0.01 | 0.01 | 99 | 1007.4 |
| 20260903144557 | 52 | 78 | 1.0 | 4.0 | 0.00 | 0.01 | 0.01 | 99 | 1007.6 |
| 20260903144053 | 52 | 100 | 2.0 | 3.0 | 0.00 | 0.01 | 0.01 | 99 | 1007.6 |
| 20260903143549 | 52 | 110 | 3.0 | 4.0 | 0.00 | 0.01 | 0.01 | 99 | 1007.6 |
| 20260903143045 | 52 | 126 | 1.0 | 5.0 | 0.00 | 0.01 | 0.01 | 99 | 1007.5 |
| 20260903142540 | 52 | 155 | 4.0 | 6.0 | 0.00 | 0.01 | 0.01 | 99 | 1007.7 |
| 20260903142037 | 52 | 151 | 3.0 | 7.0 | 0.00 | 0.01 | 0.01 | 99 | 1007.5 |
| 20260903141532 | 52 | 190 | 0.0 | 5.0 | 0.00 | 0.01 | 0.01 | 99 | 1007.5 |
| 20260903141027 | 52 | 106 | 2.0 | 3.0 | 0.00 | 0.01 | 0.01 | 99 | 1007.4 |
| 20260903140523 | 52 | 101 | 3.0 | 5.0 | 0.00 | 0.01 | 0.01 | 99 | 1007.4 |
| 20260903140018 | 52 | 139 | 3.0 | 6.0 | 0.00 | 0.01 | 0.01 | 99 | 1007.4 |
| 20260903135513 | 52 | 124 | 2.0 | 5.0 | 0.00 | 0.01 | 0.01 | 99 | 1007.3 |
| 20260903135008 | 52 | 130 | 2.0 | 6.0 | 0.00 | 0.01 | 0.01 | 99 | 1007.1 |
| 20260903134508 | 52 | 135 | 5.0 | 7.0 | 0.00 | 0.01 | 0.01 | 99 | 1007.0 |
| 20260903134004 | 52 | 113 | 2.0 | 4.0 | 0.00 | 0.01 | 0.01 | 99 | 1007.1 |
| 20260903133501 | 52 | 155 | 5.0 | 10.0 | 0.00 | 0.01 | 0.01 | 99 | 1006.9 |
| 20260903132956 | 52 | 14 | 3.0 | 8.0 | 0.00 | 0.01 | 0.01 | 99 | 1007.0 |
| 20260903132451 | 52 | 96 | 3.0 | 6.0 | 0.00 | 0.01 | 0.01 | 99 | 1006.9 |
| 20260903131951 | 52 | 110 | 5.0 | 7.0 | 0.00 | 0.01 | 0.01 | 99 | 1006.6 |
| 20260903131446 | 52 | 159 | 4.0 | 9.0 | 0.00 | 0.01 | 0.01 | 99 | 1006.7 |
| 20260903130945 | 52 | 182 | 4.0 | 6.0 | 0.00 | 0.01 | 0.01 | 99 | 1007.0 |
| 20260903130440 | 52 | 169 | 5.0 | 8.0 | 0.00 | 0.01 | 0.01 | 99 | 1006.6 |
| 20260903125939 | 52 | 147 | 3.0 | 6.0 | 0.02 | 0.01 | 0.01 | 99 | 1006.6 |
| 20260903125433 | 52 | 104 | 4.0 | 6.0 | 0.02 | 0.01 | 0.01 | 99 | 1006.6 |
| 20260903124933 | 52 | 120 | 4.0 | 5.0 | 0.00 | 0.00 | 0.00 | 99 | 1006.5 |
| 20260903124428 | 52 | 140 | 4.0 | 10.0 | 0.00 | 0.00 | 0.00 | 99 | 1006.1 |
| 20260903123927 | 52 | 120 | 4.0 | 7.0 | 0.00 | 0.00 | 0.00 | 99 | 1006.5 |
| 20260903123422 | 52 | 142 | 4.0 | 8.0 | 0.00 | 0.00 | 0.00 | 99 | 1006.6 |
| 20260903122921 | 52 | 125 | 4.0 | 7.0 | 0.00 | 0.00 | 0.00 | 99 | 1006.5 |
| 20260903122420 | 52 | 89 | 3.0 | 6.0 | 0.00 | 0.00 | 0.00 | 99 | 1006.4 |
| 20260903121920 | 52 | 133 | 4.0 | 5.0 | 0.02 | 0.00 | 0.00 | 99 | 1006.4 |
| 20260903121415 | 52 | 95 | 0.0 | 5.0 | 0.02 | 0.00 | 0.00 | 99 | 1006.3 |
| 20260903120912 | 52 | 177 | 3.0 | 7.0 | 0.00 | 0.00 | 0.00 | 99 | 1006.2 |
| 20260903120410 | 52 | 61 | 2.0 | 5.0 | 0.00 | 0.00 | 0.00 | 99 | 1006.3 |
| 20260903115909 | 52 | 197 | 2.0 | 8.0 | 0.00 | 0.00 | 0.00 | 99 | 1006.4 |
| 20260903115408 | 52 | 129 | 5.0 | 8.0 | 0.00 | 0.00 | 0.00 | 99 | 1006.2 |
| 20260903114903 | 52 | 92 | 2.0 | 6.0 | 0.00 | 0.00 | 0.00 | 99 | 1006.3 |
| 20260903114359 | 52 | 107 | 2.0 | 8.0 | 0.00 | 0.00 | 0.00 | 99 | 1006.3 |
| 20260903113854 | 52 | 145 | 3.0 | 6.0 | 0.00 | 0.00 | 0.00 | 99 | 1006.1 |
| 20260903113350 | 52 | 102 | 2.0 | 13.0 | 0.00 | 0.00 | 0.00 | 99 | 1005.9 |
| 20260903112846 | 52 | 254 | 1.0 | 4.0 | 0.00 | 0.00 | 0.00 | 99 | 1006.2 |
| 20260903112341 | 52 | 125 | 5.0 | 6.0 | 0.00 | 0.00 | 0.00 | 99 | 1005.9 |
| 20260903111840 | 52 | 177 | 1.0 | 8.0 | 0.00 | 0.00 | 0.00 | 99 | 1006.0 |
| 20260903111340 | 52 | 144 | 2.0 | 8.0 | 0.00 | 0.00 | 0.00 | 99 | 1005.9 |
| 20260903110837 | 52 | 255 | 2.0 | 6.0 | 0.00 | 0.00 | 0.00 | 99 | 1005.9 |
| 20260903110327 | 52 | 187 | 6.0 | 17.0 | 0.00 | 0.00 | 0.00 | 99 | 1005.8 |
| 20260903105827 | 52 | 108 | 2.0 | 7.0 | 0.00 | 0.00 | 0.00 | 99 | 1005.9 |
| 20260903105326 | 52 | 165 | 3.0 | 7.0 | 0.00 | 0.00 | 0.00 | 99 | 1005.9 |
| 20260903104821 | 52 | 340 | 3.0 | 6.0 | 0.00 | 0.00 | 0.00 | 99 | 1005.9 |
| 20260903104316 | 52 | 21 | 2.0 | 11.0 | 0.00 | 0.00 | 0.00 | 99 | 1006.0 |
| 20260903103812 | 52 | 118 | 4.0 | 8.0 | 0.00 | 0.00 | 0.00 | 99 | 1005.8 |
| 20260903103308 | 52 | 28 | 2.0 | 8.0 | 0.00 | 0.00 | 0.00 | 99 | 1005.7 |
| 20260903102803 | 52 | 184 | 5.0 | 6.0 | 0.00 | 0.00 | 0.00 | 99 | 1005.6 |
| 20260903102258 | 52 | 153 | 5.0 | 12.0 | 0.00 | 0.00 | 0.00 | 99 | 1005.7 |
| 20260903101756 | 52 | 142 | 5.0 | 10.0 | 0.00 | 0.00 | 0.00 | 99 | 1005.9 |
| 20260903101252 | 52 | 125 | 7.0 | 9.0 | 0.00 | 0.00 | 0.00 | 99 | 1005.9 |
| 20260903100747 | 52 | 138 | 3.0 | 8.0 | 0.00 | 0.00 | 0.00 | 99 | 1005.8 |
| 20260903100242 | 52 | 98 | 3.0 | 8.0 | 0.00 | 0.00 | 0.00 | 99 | 1005.9 |
| 20260903095739 | 52 | 175 | 2.0 | 9.0 | 0.00 | 0.00 | 0.00 | 99 | 1005.9 |
| 20260903095234 | 52 | 181 | 5.0 | 7.0 | 0.00 | 0.00 | 0.00 | 99 | 1005.8 |
| 20260903094729 | 52 | 177 | 5.0 | 7.0 | 0.00 | 0.00 | 0.00 | 99 | 1005.7 |
| 20260903094224 | 52 | 111 | 3.0 | 8.0 | 0.00 | 0.00 | 0.00 | 99 | 1005.9 |
| 20260903093720 | 52 | 76 | 1.0 | 5.0 | 0.00 | 0.00 | 0.00 | 99 | 1005.9 |
| 20260903093215 | 52 | 109 | 1.0 | 4.0 | 0.00 | 0.00 | 0.00 | 99 | 1005.9 |
| 20260903092714 | 52 | 201 | 2.0 | 4.0 | 0.00 | 0.00 | 0.00 | 99 | 1005.9 |
| 20260903092209 | 52 | 352 | 3.0 | 3.0 | 0.00 | 0.00 | 0.00 | 99 | 1006.0 |
| 20260903091708 | 52 | 123 | 4.0 | 4.0 | 0.00 | 0.00 | 0.00 | 99 | 1006.0 |
| 20260903091203 | 52 | 226 | 1.0 | 3.0 | 0.00 | 0.00 | 0.00 | 98 | 1005.9 |
| 20260903090658 | 52 | 153 | 2.0 | 4.0 | 0.00 | 0.00 | 0.00 | 98 | 1005.9 |
| 20260903090157 | 52 | 19 | 0.0 | 2.0 | 0.00 | 0.00 | 0.00 | 99 | 1005.8 |
| 20260903085656 | 52 | 145 | 2.0 | 4.0 | 0.00 | 0.00 | 0.00 | 98 | 1005.8 |
| 20260903085152 | 52 | 285 | 1.0 | 4.0 | 0.00 | 0.00 | 0.00 | 98 | 1006.0 |
| 20260903084649 | 52 | 133 | 0.0 | 4.0 | 0.00 | 0.00 | 0.00 | 97 | 1005.9 |
| 20260903084148 | 52 | 105 | 2.0 | 4.0 | 0.00 | 0.00 | 0.00 | 97 | 1006.0 |
| 20260903083645 | 52 | 194 | 1.0 | 3.0 | 0.00 | 0.00 | 0.00 | 98 | 1006.1 |
| 20260903083145 | 52 | 108 | 3.0 | 5.0 | 0.00 | 0.00 | 0.00 | 97 | 1005.9 |
| 20260903082639 | 52 | 119 | 3.0 | 4.0 | 0.00 | 0.00 | 0.00 | 98 | 1005.9 |
| 20260903082135 | 52 | 88 | 2.0 | 3.0 | 0.00 | 0.00 | 0.00 | 98 | 1005.9 |
| 20260903081630 | 52 | 112 | 2.0 | 3.0 | 0.00 | 0.00 | 0.00 | 98 | 1005.9 |
| 20260903081126 | 52 | 80 | 2.0 | 2.0 | 0.00 | 0.00 | 0.00 | 98 | 1005.7 |
| 20260903080622 | 52 | 159 | 4.0 | 5.0 | 0.00 | 0.00 | 0.00 | 98 | 1005.8 |
| 20260903080119 | 52 | 76 | 2.0 | 4.0 | 0.00 | 0.00 | 0.00 | 98 | 1005.6 |
| 20260903075613 | 52 | 94 | 2.0 | 4.0 | 0.00 | 0.00 | 0.00 | 98 | 1005.8 |
| 20260903075108 | 52 | 113 | 2.0 | 3.0 | 0.00 | 0.00 | 0.00 | 98 | 1005.7 |
| 20260903074607 | 52 | 126 | 4.0 | 4.0 | 0.00 | 0.00 | 0.00 | 98 | 1005.8 |
| 20260903074102 | 52 | 144 | 3.0 | 4.0 | 0.00 | 0.00 | 0.00 | 98 | 1005.7 |
| 20260903073558 | 52 | 102 | 2.0 | 4.0 | 0.00 | 0.00 | 0.00 | 98 | 1005.5 |
| 20260903073054 | 52 | 101 | 1.0 | 2.0 | 0.00 | 0.00 | 0.00 | 98 | 1005.6 |
| 20260903072549 | 53 | 107 | 2.0 | 2.0 | 0.00 | 0.00 | 0.00 | 98 | 1005.6 |
| 20260903072045 | 52 | 129 | 2.0 | 3.0 | 0.00 | 0.00 | 0.00 | 98 | 1005.5 |
| 20260903071541 | 52 | 110 | 3.0 | 6.0 | 0.00 | 0.00 | 0.00 | 98 | 1005.6 |
| 20260903071036 | 52 | 145 | 2.0 | 2.0 | 0.00 | 0.00 | 0.00 | 98 | 1005.5 |
| 20260903070536 | 52 | 22 | 0.0 | 4.0 | 0.00 | 0.00 | 0.00 | 98 | 1005.5 |
| 20260903070032 | 52 | 96 | 1.0 | 4.0 | 0.00 | 0.12 | 0.12 | 97 | 1005.6 |
| 20260903065525 | 52 | 129 | 2.0 | 2.0 | 0.00 | 0.12 | 0.12 | 97 | 1005.5 |
| 20260903065025 | 52 | 166 | 0.0 | 2.0 | 0.00 | 0.12 | 0.12 | 96 | 1005.5 |
| 20260903064525 | 52 | 122 | 3.0 | 4.0 | 0.00 | 0.12 | 0.12 | 96 | 1005.7 |
| 20260903064020 | 53 | 129 | 4.0 | 4.0 | 0.00 | 0.12 | 0.12 | 96 | 1005.5 |
| 20260903063515 | 53 | 127 | 5.0 | 11.0 | 0.00 | 0.12 | 0.12 | 96 | 1005.6 |
| 20260903063011 | 52 | 132 | 6.0 | 6.0 | 0.00 | 0.12 | 0.12 | 96 | 1005.6 |
| 20260903062506 | 52 | 92 | 1.0 | 3.0 | 0.00 | 0.12 | 0.12 | 95 | 1005.3 |
| 20260903062002 | 52 | 60 | 0.0 | 3.0 | 0.00 | 0.12 | 0.12 | 94 | 1005.4 |
| 20260903061502 | 52 | 95 | 1.0 | 7.0 | 0.00 | 0.12 | 0.12 | 96 | 1005.4 |
| 20260903060957 | 51 | 103 | 2.0 | 3.0 | 0.00 | 0.12 | 0.12 | 95 | 1005.5 |
| 20260903060457 | 51 | 107 | 3.0 | 5.0 | 0.00 | 0.12 | 0.12 | 95 | 1005.4 |
| 20260903055956 | 51 | 137 | 3.0 | 4.0 | 0.00 | 0.12 | 0.12 | 93 | 1005.4 |
| 20260903055454 | 51 | 57 | 3.0 | 3.0 | 0.00 | 0.12 | 0.12 | 91 | 1005.3 |
| 20260903054949 | 52 | 110 | 6.0 | 11.0 | 0.00 | 0.12 | 0.12 | 89 | 1005.3 |
| 20260903054448 | 52 | 93 | 2.0 | 3.0 | 0.00 | 0.12 | 0.12 | 89 | 1005.3 |
| 20260903053945 | 52 | 98 | 2.0 | 3.0 | 0.00 | 0.12 | 0.12 | 87 | 1005.4 |
| 20260903053444 | 52 | 130 | 6.0 | 8.0 | 0.00 | 0.12 | 0.12 | 87 | 1005.2 |
| 20260903052941 | 52 | 19 | 0.0 | 6.0 | 0.00 | 0.12 | 0.12 | 90 | 1005.3 |
| 20260903052437 | 51 | 133 | 2.0 | 9.0 | 0.00 | 0.12 | 0.12 | 91 | 1005.4 |
| 20260903051932 | 50 | 221 | 2.0 | 6.0 | 0.00 | 0.12 | 0.12 | 93 | 1005.3 |
| 20260903051427 | 49 | 68 | 3.0 | 4.0 | 0.00 | 0.12 | 0.12 | 98 | 1005.2 |
| 20260903050918 | 48 | 159 | 1.0 | 2.0 | 0.00 | 0.12 | 0.12 | 99 | 1005.3 |
| 20260903050416 | 49 | 63 | 0.0 | 2.0 | 0.00 | 0.12 | 0.12 | 99 | 1005.2 |
| 20260903045911 | 49 | 49 | 0.0 | 2.0 | 0.00 | 0.12 | 0.12 | 99 | 1005.1 |
| 20260903045407 | 49 | 78 | 2.0 | 2.0 | 0.00 | 0.12 | 0.12 | 99 | 1005.1 |
| 20260903044903 | 49 | 8 | 3.0 | 3.0 | 0.00 | 0.12 | 0.12 | 98 | 1005.2 |
| 20260903044357 | 50 | 85 | 0.0 | 2.0 | 0.00 | 0.12 | 0.12 | 98 | 1005.0 |
| 20260903043854 | 50 | 126 | 1.0 | 2.0 | 0.00 | 0.12 | 0.12 | 98 | 1005.1 |
| 20260903043349 | 50 | 212 | 0.0 | 4.0 | 0.00 | 0.12 | 0.12 | 96 | 1004.8 |
| 20260903042848 | 50 | 101 | 1.0 | 2.0 | 0.00 | 0.12 | 0.12 | 98 | 1004.7 |
| 20260903042343 | 50 | 8 | 2.0 | 2.0 | 0.00 | 0.12 | 0.12 | 98 | 1004.8 |
| 20260903041839 | 51 | 103 | 1.0 | 3.0 | 0.00 | 0.12 | 0.12 | 94 | 1004.6 |
| 20260903041335 | 52 | 157 | 2.0 | 4.0 | 0.00 | 0.12 | 0.12 | 92 | 1004.5 |
| 20260903040831 | 51 | 128 | 2.0 | 3.0 | 0.00 | 0.12 | 0.12 | 93 | 1004.7 |
| 20260903040330 | 51 | 113 | 0.0 | 2.0 | 0.00 | 0.12 | 0.12 | 95 | 1004.5 |
| 20260903035826 | 52 | 27 | 2.0 | 3.0 | 0.00 | 0.12 | 0.12 | 94 | 1004.6 |
| 20260903035321 | 52 | 72 | 3.0 | 5.0 | 0.00 | 0.12 | 0.12 | 94 | 1004.4 |
| 20260903034816 | 52 | 107 | 3.0 | 5.0 | 0.00 | 0.12 | 0.12 | 91 | 1004.4 |
| 20260903034311 | 53 | 112 | 3.0 | 4.0 | 0.00 | 0.12 | 0.12 | 90 | 1004.1 |
| 20260903033807 | 52 | 128 | 2.0 | 2.0 | 0.00 | 0.12 | 0.12 | 92 | 1004.0 |
| 20260903033302 | 52 | 103 | 2.0 | 2.0 | 0.00 | 0.12 | 0.12 | 96 | 1004.0 |
| 20260903032800 | 52 | 81 | 3.0 | 8.0 | 0.00 | 0.12 | 0.12 | 92 | 1003.9 |
| 20260903032257 | 52 | 260 | 2.0 | 6.0 | 0.00 | 0.12 | 0.12 | 95 | 1003.8 |
| 20260903031752 | 52 | 145 | 2.0 | 3.0 | 0.00 | 0.12 | 0.12 | 99 | 1003.8 |
| 20260903031251 | 52 | 353 | 4.0 | 4.0 | 0.00 | 0.12 | 0.12 | 99 | 1003.7 |
| 20260903030748 | 52 | 23 | 4.0 | 4.0 | 0.00 | 0.12 | 0.12 | 99 | 1003.6 |
| 20260903030243 | 53 | 135 | 0.0 | 3.0 | 0.00 | 0.12 | 0.12 | 99 | 1003.4 |
| 20260903025738 | 53 | 113 | 2.0 | 3.0 | 0.00 | 0.12 | 0.12 | 99 | 1003.3 |
| 20260903025234 | 53 | 16 | 2.0 | 4.0 | 0.00 | 0.12 | 0.12 | 99 | 1003.2 |
| 20260903024729 | 53 | 80 | 2.0 | 2.0 | 0.00 | 0.12 | 0.12 | 98 | 1003.2 |
| 20260903024228 | 53 | 182 | 3.0 | 13.0 | 0.00 | 0.12 | 0.12 | 99 | 1003.1 |
| 20260903023724 | 53 | 355 | 1.0 | 5.0 | 0.00 | 0.12 | 0.12 | 99 | 1002.9 |
| 20260903023219 | 53 | 81 | 0.0 | 3.0 | 0.00 | 0.12 | 0.12 | 99 | 1002.6 |
| 20260903022719 | 53 | 55 | 2.0 | 4.0 | 0.00 | 0.12 | 0.12 | 99 | 1002.6 |
| 20260903022218 | 53 | 116 | 5.0 | 5.0 | 0.00 | 0.12 | 0.12 | 99 | 1002.4 |
| 20260903021712 | 54 | 193 | 2.0 | 5.0 | 0.00 | 0.12 | 0.12 | 99 | 1002.5 |
| 20260903021207 | 54 | 15 | 2.0 | 3.0 | 0.00 | 0.12 | 0.12 | 99 | 1002.6 |
| 20260903020702 | 53 | 104 | 2.0 | 5.0 | 0.00 | 0.12 | 0.12 | 99 | 1002.5 |
| 20260903020157 | 54 | 165 | 3.0 | 4.0 | 0.00 | 0.12 | 0.12 | 99 | 1002.5 |
| 20260903015652 | 54 | 139 | 2.0 | 3.0 | 0.00 | 0.12 | 0.12 | 99 | 1002.4 |
| 20260903015148 | 54 | 328 | 4.0 | 4.0 | 0.00 | 0.12 | 0.12 | 99 | 1002.4 |
| 20260903014648 | 54 | 149 | 4.0 | 9.0 | 0.00 | 0.12 | 0.12 | 99 | 1002.1 |
| 20260903014142 | 54 | 119 | 7.0 | 11.0 | 0.00 | 0.12 | 0.12 | 99 | 1002.3 |
| 20260903013637 | 54 | 73 | 2.0 | 2.0 | 0.00 | 0.12 | 0.12 | 99 | 1002.5 |
| 20260903013136 | 54 | 92 | 1.0 | 4.0 | 0.00 | 0.12 | 0.12 | 99 | 1002.6 |
| 20260903012635 | 54 | 3 | 0.0 | 4.0 | 0.00 | 0.12 | 0.12 | 99 | 1002.2 |
| 20260903012134 | 54 | 38 | 3.0 | 4.0 | 0.00 | 0.12 | 0.12 | 99 | 1002.3 |
| 20260903011634 | 55 | 118 | 6.0 | 6.0 | 0.00 | 0.12 | 0.12 | 99 | 1002.2 |
| 20260903011128 | 54 | 248 | 4.0 | 6.0 | 0.00 | 0.12 | 0.12 | 99 | 1002.1 |
| 20260903010624 | 55 | 125 | 3.0 | 6.0 | 0.00 | 0.12 | 0.12 | 99 | 1001.8 |
| 20260903010122 | 54 | 108 | 2.0 | 8.0 | 0.00 | 0.12 | 0.12 | 99 | 1001.9 |
| 20260903005617 | 54 | 78 | 4.0 | 10.0 | 0.00 | 0.12 | 0.12 | 99 | 1001.5 |
| 20260903005113 | 54 | 119 | 3.0 | 13.0 | 0.00 | 0.12 | 0.12 | 99 | 1001.4 |
| 20260903004608 | 54 | 170 | 3.0 | 11.0 | 0.00 | 0.12 | 0.12 | 99 | 1001.0 |
| 20260903004103 | 54 | 130 | 10.0 | 14.0 | 0.00 | 0.12 | 0.12 | 99 | 1001.2 |
| 20260903003558 | 54 | 119 | 6.0 | 11.0 | 0.02 | 0.12 | 0.12 | 99 | 1001.2 |
| 20260903003054 | 54 | 94 | 4.0 | 14.0 | 0.00 | 0.11 | 0.11 | 99 | 1001.1 |
| 20260903002548 | 54 | 129 | 6.0 | 14.0 | 0.02 | 0.11 | 0.11 | 99 | 1001.4 |
| 20260903002043 | 54 | 126 | 4.0 | 9.0 | 0.07 | 0.11 | 0.11 | 99 | 1001.2 |
| 20260903001537 | 54 | 123 | 5.0 | 11.0 | 0.07 | 0.11 | 0.11 | 99 | 1001.2 |
| 20260903001031 | 54 | 160 | 6.0 | 14.0 | 0.05 | 0.10 | 0.10 | 99 | 1001.6 |
| 20260903000527 | 54 | 142 | 7.0 | 10.0 | 0.05 | 0.09 | 0.09 | 99 | 1001.7 |
| 20260903000025 | 54 | 143 | 3.0 | 9.0 | 0.07 | 0.09 | 0.09 | 99 | 1001.7 |
| 20260902235520 | 54 | 160 | 6.0 | 14.0 | 0.05 | 0.08 | 0.08 | 99 | 1001.8 |
| 20260902235014 | 54 | 165 | 6.0 | 18.0 | 0.05 | 0.08 | 0.08 | 99 | 1001.6 |
| 20260902234509 | 54 | 127 | 4.0 | 11.0 | 0.02 | 0.07 | 0.07 | 99 | 1002.1 |
| 20260902234008 | 54 | 124 | 9.0 | 15.0 | 0.00 | 0.07 | 0.07 | 99 | 1001.9 |
| 20260902233502 | 54 | 100 | 3.0 | 13.0 | 0.05 | 0.07 | 0.07 | 99 | 1001.9 |
| 20260902232956 | 54 | 138 | 5.0 | 11.0 | 0.05 | 0.07 | 0.07 | 99 | 1001.9 |
| 20260902232451 | 54 | 125 | 5.0 | 15.0 | 0.05 | 0.06 | 0.06 | 99 | 1001.6 |
| 20260902231950 | 54 | 143 | 5.0 | 14.0 | 0.05 | 0.06 | 0.06 | 99 | 1001.8 |
| 20260902231445 | 53 | 126 | 5.0 | 13.0 | 0.02 | 0.06 | 0.06 | 99 | 1001.9 |
| 20260902230940 | 53 | 136 | 9.0 | 13.0 | 0.02 | 0.05 | 0.05 | 99 | 1001.8 |
| 20260902230439 | 54 | 159 | 11.0 | 14.0 | 0.05 | 0.05 | 0.05 | 99 | 1001.9 |
| 20260902225933 | 54 | 147 | 6.0 | 11.0 | 0.05 | 0.05 | 0.05 | 99 | 1001.9 |
| 20260902225429 | 53 | 140 | 9.0 | 15.0 | 0.05 | 0.04 | 0.04 | 99 | 1001.9 |
| 20260902224927 | 53 | 167 | 10.0 | 17.0 | 0.05 | 0.04 | 0.04 | 99 | 1001.9 |
| 20260902224421 | 53 | 143 | 8.0 | 13.0 | 0.07 | 0.04 | 0.04 | 98 | 1001.8 |
| 20260902223918 | 53 | 132 | 7.0 | 14.0 | 0.07 | 0.03 | 0.03 | 98 | 1001.9 |
| 20260902223413 | 54 | 144 | 6.0 | 17.0 | 0.07 | 0.02 | 0.02 | 97 | 1001.8 |